Time;durP1;ratioP1;P1;durP2;ratioP2;P2;SDS_P1;SDS_P2;PMS_P1;PMS_P2;Temp;Humidity;BMP_temperature;BMP_pressure;BME280_temperature;BME280_humidity;BME280_pressure;Samples;Min_cycle;Max_cycle;Signal;HPM_P1;HPM_P2
2022/08/30 00:03:19;;;;;;;9.70;4.63;;;;;;;16.22;78.00;102029.25;5032544;28;20036;-65
2022/08/30 00:05:45;;;;;;;6.63;3.85;;;;;;;16.33;77.35;102026.53;5027817;28;20028;-64
2022/08/30 00:08:11;;;;;;;6.28;3.97;;;;;;;16.15;78.30;102022.88;5029676;28;20064;-64
2022/08/30 00:10:37;;;;;;;8.65;4.10;;;;;;;16.14;78.47;102021.25;5044076;28;20029;-64
2022/08/30 00:13:05;;;;;;;7.75;4.22;;;;;;;16.16;78.89;102024.53;5046925;28;20491;-64
2022/08/30 00:15:31;;;;;;;8.05;4.03;;;;;;;16.08;78.76;102006.06;5026539;28;20025;-64
2022/08/30 00:17:57;;;;;;;7.47;4.10;;;;;;;16.12;78.66;102007.47;5039468;28;20018;-64
2022/08/30 00:20:29;;;;;;;5.63;3.90;;;;;;;16.13;78.99;102015.19;5025863;28;20033;-64
2022/08/30 00:22:55;;;;;;;6.88;4.40;;;;;;;16.18;78.54;102009.56;5038505;28;20390;-64
2022/08/30 00:25:21;;;;;;;6.75;4.07;;;;;;;16.16;78.14;102008.84;5026191;28;20029;-67
2022/08/30 00:27:47;;;;;;;5.95;4.10;;;;;;;16.04;78.96;102009.91;5026552;28;20033;-65
2022/08/30 00:30:15;;;;;;;10.15;4.40;;;;;;;15.93;79.17;101990.72;5026713;28;20037;-67
2022/08/30 00:32:41;;;;;;;8.10;4.50;;;;;;;16.01;78.98;102015.41;5026383;28;20036;-67
2022/08/30 00:35:08;;;;;;;6.75;4.20;;;;;;;16.01;78.63;102010.19;5028329;28;20021;-67
2022/08/30 00:37:34;;;;;;;7.85;4.45;;;;;;;16.04;79.00;102015.13;5027932;28;20481;-64
2022/08/30 00:39:59;;;;;;;7.75;4.60;;;;;;;15.91;79.53;102021.41;5027817;28;20029;-64
2022/08/30 00:42:25;;;;;;;7.68;4.30;;;;;;;15.97;79.38;102008.78;5008262;28;20022;-64
2022/08/30 00:44:51;;;;;;;8.05;4.65;;;;;;;16.02;78.96;102014.44;5037838;28;20029;-64
2022/08/30 00:47:17;;;;;;;7.45;4.65;;;;;;;15.96;79.28;102007.13;5040643;28;20021;-66
2022/08/30 00:49:47;;;;;;;6.63;4.47;;;;;;;15.90;79.13;102019.75;5033671;28;20091;-64
2022/08/30 00:52:12;;;;;;;7.50;4.55;;;;;;;15.86;79.74;102002.66;5040256;28;20048;-64
2022/08/30 00:54:43;;;;;;;8.07;4.75;;;;;;;15.81;80.06;102020.53;5045412;28;20484;-64
2022/08/30 00:57:10;;;;;;;8.68;4.72;;;;;;;15.86;79.74;102018.34;5054696;28;20029;-64
2022/08/30 00:59:37;;;;;;;8.60;4.75;;;;;;;15.92;79.82;102010.00;5028773;28;20036;-64
2022/08/30 01:02:03;;;;;;;8.18;5.03;;;;;;;15.81;80.36;102009.25;5033541;28;20036;-64
2022/08/30 01:04:30;;;;;;;7.22;4.65;;;;;;;15.83;79.82;102018.63;5060181;28;20261;-63
2022/08/30 01:06:56;;;;;;;7.70;4.85;;;;;;;15.80;79.66;102018.88;5046024;28;20033;-63
2022/08/30 01:09:22;;;;;;;7.18;4.95;;;;;;;15.88;79.64;102026.91;5061734;28;20016;-67
2022/08/30 01:11:48;;;;;;;8.45;5.20;;;;;;;15.83;80.17;102018.63;5048356;28;20048;-63
2022/08/30 01:14:16;;;;;;;8.30;5.07;;;;;;;15.87;79.65;102027.88;5048513;28;20143;-64
2022/08/30 01:16:43;;;;;;;8.20;5.22;;;;;;;15.80;79.92;102029.34;5049173;28;20021;-64
2022/08/30 01:19:44;;;;;;;9.77;5.15;;;;;;;15.86;79.86;102033.22;5031573;28;20033;-63
2022/08/30 01:22:48;;;;;;;7.40;5.10;;;;;;;15.86;79.71;102034.06;5041025;28;20045;-64
2022/08/30 01:25:23;;;;;;;7.47;5.40;;;;;;;15.68;80.36;102030.38;4966041;28;20179;-66
2022/08/30 01:27:56;;;;;;;9.23;5.38;;;;;;;15.56;81.69;102036.63;4967025;28;20050;-65
2022/08/30 01:30:22;;;;;;;8.60;5.60;;;;;;;15.71;80.33;102029.28;4962542;28;20050;-64
2022/08/30 01:32:51;;;;;;;9.60;5.63;;;;;;;15.66;80.73;102037.53;4962518;28;20038;-63
2022/08/30 01:35:18;;;;;;;8.43;5.72;;;;;;;15.56;81.12;102036.63;4974153;28;20497;-64
2022/08/30 01:37:44;;;;;;;7.30;5.40;;;;;;;15.58;81.64;102039.91;4971849;28;20581;-64
2022/08/30 01:40:12;;;;;;;8.25;5.45;;;;;;;15.57;81.68;102035.66;4966706;28;20039;-64
2022/08/30 01:42:37;;;;;;;8.82;5.60;;;;;;;15.52;81.68;102019.50;4975419;28;20045;-63
2022/08/30 01:45:05;;;;;;;8.35;5.90;;;;;;;15.58;81.65;102042.53;4970568;28;20030;-66
2022/08/30 01:47:30;;;;;;;8.98;6.72;;;;;;;15.58;81.86;102045.16;4967086;28;20062;-64
2022/08/30 01:49:57;;;;;;;8.77;6.60;;;;;;;15.54;81.83;102043.75;4965743;28;20219;-64
2022/08/30 01:52:23;;;;;;;8.65;6.68;;;;;;;15.51;81.94;102034.38;4971505;28;20113;-65
2022/08/30 01:54:49;;;;;;;9.25;6.68;;;;;;;15.52;81.43;102033.41;4973913;28;20084;-64
2022/08/30 01:57:17;;;;;;;8.25;6.88;;;;;;;15.48;82.21;102039.03;4965633;28;20486;-64
2022/08/30 01:59:46;;;;;;;8.60;7.45;;;;;;;15.53;82.17;102042.09;5025427;28;20039;-64
2022/08/30 02:02:14;;;;;;;9.75;7.18;;;;;;;15.60;81.43;102038.84;5028420;28;20025;-64
2022/08/30 02:04:39;;;;;;;10.17;7.77;;;;;;;15.56;82.04;102041.84;5030408;28;20020;-64
2022/08/30 02:07:05;;;;;;;10.35;7.80;;;;;;;15.47;82.37;102038.19;5035985;28;20029;-64
2022/08/30 02:09:30;;;;;;;9.40;7.90;;;;;;;15.56;81.79;102041.84;5028584;28;20470;-64
2022/08/30 02:11:56;;;;;;;9.85;8.38;;;;;;;15.54;82.09;102028.03;5035580;28;20053;-65
2022/08/30 02:14:22;;;;;;;9.95;8.30;;;;;;;15.48;82.26;102034.63;5041564;28;20496;-64
2022/08/30 02:16:47;;;;;;;9.75;8.00;;;;;;;15.41;82.63;102023.03;5027235;28;20021;-64
2022/08/30 02:19:13;;;;;;;10.88;8.52;;;;;;;15.48;82.20;102025.94;5032033;28;20120;-65
2022/08/30 02:21:39;;;;;;;10.05;8.65;;;;;;;15.49;82.01;102030.25;5053345;28;20063;-66
2022/08/30 02:24:04;;;;;;;10.63;8.93;;;;;;;15.34;82.82;102027.09;5037121;28;20462;-64
2022/08/30 02:26:30;;;;;;;9.90;8.90;;;;;;;15.32;83.21;102029.84;5042480;28;20024;-64
2022/08/30 02:28:56;;;;;;;9.82;8.77;;;;;;;15.33;83.02;102020.22;5035118;28;20060;-64
2022/08/30 02:31:21;;;;;;;9.80;8.80;;;;;;;15.35;83.11;102023.53;5040849;28;20103;-64
2022/08/30 02:33:49;;;;;;;10.82;9.38;;;;;;;15.36;83.17;102015.56;5034487;28;20469;-66
2022/08/30 02:36:15;;;;;;;10.40;9.10;;;;;;;15.36;83.26;102012.94;5046557;28;20116;-64
2022/08/30 02:38:40;;;;;;;12.25;9.00;;;;;;;15.31;83.23;102007.28;5039485;28;20101;-64
2022/08/30 02:41:06;;;;;;;10.82;9.82;;;;;;;15.16;83.88;102003.31;5031381;28;20031;-64
2022/08/30 02:43:31;;;;;;;10.00;8.75;;;;;;;15.32;83.44;102003.72;5028714;28;20040;-64
2022/08/30 02:45:56;;;;;;;10.63;9.00;;;;;;;15.35;82.88;102003.44;5030199;28;20051;-64
2022/08/30 02:48:22;;;;;;;10.30;9.20;;;;;;;15.26;83.16;102000.78;5051943;28;20025;-63
2022/08/30 02:50:51;;;;;;;11.30;9.60;;;;;;;15.27;83.71;102010.28;5026919;28;20067;-64
2022/08/30 02:53:17;;;;;;;10.00;8.98;;;;;;;15.24;83.64;102010.50;5040648;28;20043;-64
2022/08/30 02:55:42;;;;;;;9.93;8.93;;;;;;;15.24;83.29;102003.50;5028850;28;20017;-64
2022/08/30 02:58:09;;;;;;;10.23;9.23;;;;;;;15.27;83.54;102011.09;5043121;28;20036;-64
2022/08/30 03:00:35;;;;;;;10.02;8.93;;;;;;;15.14;83.56;102002.63;5016486;28;20017;-65
2022/08/30 03:03:02;;;;;;;14.80;9.43;;;;;;;15.20;83.49;102003.91;5039955;28;20033;-65
2022/08/30 03:05:28;;;;;;;10.85;9.35;;;;;;;15.01;84.26;102010.63;5021543;28;20025;-66
2022/08/30 03:07:54;;;;;;;10.68;9.68;;;;;;;15.17;83.43;101999.75;5052909;28;20059;-65
2022/08/30 03:10:19;;;;;;;10.43;9.43;;;;;;;15.13;83.79;101985.25;5046181;28;20461;-64
2022/08/30 03:12:46;;;;;;;11.00;9.65;;;;;;;15.06;83.63;101997.19;5037805;28;20405;-64
2022/08/30 03:15:13;;;;;;;10.57;9.48;;;;;;;15.10;83.72;101998.59;5034576;28;20028;-64
2022/08/30 03:17:39;;;;;;;10.45;9.45;;;;;;;15.07;83.71;102004.06;5044798;28;20021;-64
2022/08/30 03:20:05;;;;;;;10.52;9.48;;;;;;;15.06;84.06;102007.63;5034023;28;20036;-64
2022/08/30 03:22:31;;;;;;;10.65;9.48;;;;;;;15.03;83.96;102002.66;5045194;28;20025;-65
2022/08/30 03:24:58;;;;;;;10.02;9.05;;;;;;;15.04;83.78;101999.09;5033848;28;20116;-64
2022/08/30 03:27:24;;;;;;;10.88;9.77;;;;;;;14.82;84.54;101995.63;5032580;28;20484;-64
2022/08/30 03:29:49;;;;;;;11.43;9.88;;;;;;;14.90;84.43;102000.22;5031784;28;20534;-64
2022/08/30 03:32:15;;;;;;;11.35;10.13;;;;;;;14.90;84.50;101996.75;5031462;28;20476;-64
2022/08/30 03:34:40;;;;;;;11.13;10.05;;;;;;;14.90;84.43;101992.38;5034479;28;20032;-64
2022/08/30 03:37:05;;;;;;;11.20;10.02;;;;;;;14.82;85.08;101990.38;5035098;28;20104;-65
2022/08/30 03:39:31;;;;;;;10.93;9.82;;;;;;;14.88;84.47;101983.84;5023686;28;20024;-64
2022/08/30 03:41:56;;;;;;;11.52;10.43;;;;;;;14.80;84.92;101992.31;5043311;28;20398;-64
2022/08/30 03:44:22;;;;;;;12.13;11.02;;;;;;;14.73;85.01;101990.28;5055027;28;20472;-64
2022/08/30 03:46:47;;;;;;;11.45;10.40;;;;;;;14.76;84.83;101996.09;5013535;28;20029;-64
2022/08/30 03:49:13;;;;;;;11.45;10.27;;;;;;;14.72;85.28;101993.88;5027804;28;20034;-64
2022/08/30 03:51:39;;;;;;;11.73;10.63;;;;;;;14.73;84.85;101974.63;5025897;28;20114;-64
2022/08/30 03:54:04;;;;;;;11.57;10.00;;;;;;;14.77;85.50;101987.31;5032974;28;20528;-64
2022/08/30 03:56:30;;;;;;;13.10;10.75;;;;;;;14.78;84.86;101999.41;5033914;28;20581;-66
2022/08/30 03:58:55;;;;;;;12.52;11.43;;;;;;;14.63;85.63;101985.00;5028753;28;20541;-64
2022/08/30 04:01:21;;;;;;;12.20;10.98;;;;;;;14.73;85.23;101993.72;5024492;28;20029;-67
2022/08/30 04:03:46;;;;;;;12.30;11.10;;;;;;;14.80;85.03;102000.13;5008510;28;20405;-66
2022/08/30 04:06:12;;;;;;;12.40;11.23;;;;;;;14.67;85.62;102001.22;5027396;28;20474;-64
2022/08/30 04:08:37;;;;;;;11.95;10.95;;;;;;;14.69;85.67;101994.13;5029534;28;20067;-65
2022/08/30 04:11:04;;;;;;;11.63;10.57;;;;;;;14.66;85.76;101984.75;5014360;28;20037;-65
2022/08/30 04:13:29;;;;;;;12.25;11.05;;;;;;;14.62;85.68;101988.53;5030123;28;20025;-64
2022/08/30 04:15:55;;;;;;;11.43;10.32;;;;;;;14.75;84.88;101986.63;5038991;28;20036;-64
2022/08/30 04:18:20;;;;;;;11.50;10.45;;;;;;;14.70;84.56;101986.16;5028812;28;20021;-64
2022/08/30 04:20:46;;;;;;;11.93;10.75;;;;;;;14.74;84.74;101992.81;5039731;28;20047;-66
2022/08/30 04:23:12;;;;;;;11.85;10.70;;;;;;;14.70;85.03;101996.59;5028456;28;20025;-63
2022/08/30 04:25:40;;;;;;;12.38;11.00;;;;;;;14.60;85.10;101990.44;5025409;28;20037;-64
2022/08/30 04:28:07;;;;;;;12.98;11.68;;;;;;;14.55;85.67;101992.59;5038581;28;20021;-66
2022/08/30 04:30:33;;;;;;;12.57;11.48;;;;;;;14.68;85.28;101995.91;5030623;28;20037;-66
2022/08/30 04:32:59;;;;;;;11.90;10.80;;;;;;;14.65;84.99;102009.19;5027371;28;20108;-64
2022/08/30 04:35:25;;;;;;;13.32;12.13;;;;;;;14.53;85.53;102011.00;5009984;28;20408;-64
2022/08/30 04:37:50;;;;;;;13.30;12.05;;;;;;;14.62;85.30;102009.44;5027544;28;20045;-65
2022/08/30 04:40:16;;;;;;;13.55;12.35;;;;;;;14.60;85.27;102016.56;5028606;28;20033;-66
2022/08/30 04:42:45;;;;;;;13.30;12.07;;;;;;;14.60;85.60;102016.56;5046769;28;20025;-65
2022/08/30 04:45:13;;;;;;;12.90;11.60;;;;;;;14.61;85.24;102028.66;5048080;28;20036;-64
2022/08/30 04:47:40;;;;;;;13.63;12.27;;;;;;;14.57;85.68;102024.66;5042834;28;20025;-64
2022/08/30 04:50:07;;;;;;;13.18;11.73;;;;;;;14.56;85.20;102025.59;5042828;28;20518;-67
2022/08/30 04:52:32;;;;;;;13.93;12.60;;;;;;;14.42;86.17;102028.44;5056314;28;20059;-64
2022/08/30 04:54:58;;;;;;;14.00;12.57;;;;;;;14.48;86.15;102027.97;5054133;28;20472;-65
2022/08/30 04:57:25;;;;;;;13.52;12.13;;;;;;;14.54;85.78;102032.72;5030862;28;20107;-64
2022/08/30 04:59:50;;;;;;;14.07;12.75;;;;;;;14.50;85.73;102026.91;5048315;28;20029;-64
2022/08/30 05:02:16;;;;;;;13.75;12.43;;;;;;;14.53;85.60;102031.06;5068008;28;20032;-64
2022/08/30 05:05:38;;;;;;;14.75;12.93;;;;;;;14.51;85.86;102032.97;5052746;28;20040;-64
2022/08/30 05:07:27;;;;;;;14.85;13.45;;;;;;;14.48;86.12;102038.44;5048051;28;20056;-68
2022/08/30 05:09:52;;;;;;;14.50;13.20;;;;;;;14.41;85.93;102026.78;5065292;28;20063;-64
2022/08/30 05:12:17;;;;;;;15.20;13.70;;;;;;;14.45;85.90;102030.78;5056127;28;20064;-64
2022/08/30 05:14:43;;;;;;;14.10;12.80;;;;;;;14.49;86.21;102040.09;5047378;28;20226;-64
2022/08/30 05:17:09;;;;;;;14.85;13.45;;;;;;;14.51;86.00;102040.81;5048972;28;20029;-64
2022/08/30 05:19:34;;;;;;;14.13;12.93;;;;;;;14.55;85.59;102042.22;5047911;28;20067;-64
2022/08/30 05:21:59;;;;;;;14.70;13.30;;;;;;;14.55;85.78;102034.38;5048773;28;20491;-65
2022/08/30 05:24:25;;;;;;;13.98;12.68;;;;;;;14.59;85.86;102046.25;5034197;28;20047;-65
2022/08/30 05:26:50;;;;;;;13.80;12.50;;;;;;;14.51;86.22;102038.19;5045077;28;20091;-64
2022/08/30 05:29:16;;;;;;;14.20;12.90;;;;;;;14.51;86.26;102043.41;5046454;28;20355;-64
2022/08/30 05:31:43;;;;;;;14.07;12.88;;;;;;;14.52;86.10;102047.69;5048785;28;20492;-65
2022/08/30 05:34:09;;;;;;;14.32;12.80;;;;;;;14.57;86.35;102051.59;5061030;28;20024;-64
2022/08/30 05:36:36;;;;;;;14.45;12.95;;;;;;;14.57;86.51;102045.53;5047808;28;20070;-65
2022/08/30 05:39:02;;;;;;;13.80;12.50;;;;;;;14.60;86.27;102053.94;5047977;28;20419;-64
2022/08/30 05:41:28;;;;;;;13.80;12.50;;;;;;;14.63;86.74;102042.44;5035992;28;20029;-64
2022/08/30 05:43:55;;;;;;;13.68;12.38;;;;;;;14.70;85.64;102048.84;5037547;28;20048;-64
2022/08/30 05:46:21;;;;;;;13.45;12.15;;;;;;;14.76;85.57;102043.13;5028453;28;20064;-66
2022/08/30 05:48:48;;;;;;;15.90;13.65;;;;;;;14.69;86.25;102046.34;5032329;28;20079;-64
2022/08/30 05:51:15;;;;;;;14.43;12.95;;;;;;;14.69;86.02;102047.19;5039515;28;20108;-66
2022/08/30 05:53:41;;;;;;;13.80;12.50;;;;;;;14.74;85.67;102042.44;5029751;28;20028;-64
2022/08/30 05:56:09;;;;;;;14.15;12.48;;;;;;;14.71;86.05;102050.50;5028767;28;20378;-66
2022/08/30 05:58:36;;;;;;;12.73;11.52;;;;;;;14.80;85.28;102052.38;5032670;28;20020;-64
2022/08/30 06:01:02;;;;;;;13.48;12.15;;;;;;;14.82;85.34;102062.69;5029555;28;20481;-64
2022/08/30 06:03:28;;;;;;;12.90;11.63;;;;;;;14.80;85.43;102064.63;5048767;28;20118;-64
2022/08/30 06:05:54;;;;;;;12.77;11.45;;;;;;;14.78;85.69;102067.31;5054947;28;20041;-64
2022/08/30 06:08:20;;;;;;;11.82;10.60;;;;;;;14.85;85.10;102063.28;5038152;28;20036;-64
2022/08/30 06:10:46;;;;;;;11.40;10.30;;;;;;;14.99;84.84;102058.72;5027417;28;20512;-65
2022/08/30 06:13:13;;;;;;;11.05;9.38;;;;;;;14.93;84.30;102059.22;5029757;28;20045;-64
2022/08/30 06:15:39;;;;;;;10.43;9.35;;;;;;;14.96;84.69;102064.19;5029237;28;20466;-65
2022/08/30 06:18:04;;;;;;;10.98;9.10;;;;;;;15.05;83.88;102060.84;5029506;28;20503;-64
2022/08/30 06:20:30;;;;;;;9.38;8.40;;;;;;;15.13;83.83;102066.28;5036734;28;20029;-64
2022/08/30 06:22:56;;;;;;;9.65;8.63;;;;;;;15.12;83.26;102059.38;5036429;28;20044;-64
2022/08/30 06:25:21;;;;;;;11.18;8.50;;;;;;;15.19;83.02;102057.94;5019958;28;20068;-64
2022/08/30 06:27:46;;;;;;;9.27;8.38;;;;;;;15.26;83.23;102059.13;5042709;28;20028;-65
2022/08/30 06:30:12;;;;;;;10.85;8.07;;;;;;;15.34;82.53;102063.69;5047809;28;20048;-65
2022/08/30 06:32:38;;;;;;;9.07;7.97;;;;;;;15.33;82.44;102062.88;5046025;28;20058;-64
2022/08/30 06:35:05;;;;;;;9.05;7.70;;;;;;;15.39;82.04;102062.38;5046807;28;20032;-64
2022/08/30 06:37:31;;;;;;;8.70;7.78;;;;;;;15.48;81.55;102065.16;5033191;28;20469;-65
2022/08/30 06:39:58;;;;;;;10.48;7.75;;;;;;;15.52;81.83;102056.13;5039197;28;20479;-64
2022/08/30 06:42:30;;;;;;;9.45;7.25;;;;;;;15.57;81.11;102056.56;5027586;28;20148;-66
2022/08/30 06:44:56;;;;;;;9.18;7.50;;;;;;;15.65;81.07;102056.78;5030154;28;20367;-65
2022/08/30 06:47:21;;;;;;;10.43;7.75;;;;;;;15.67;80.91;102049.66;5032690;28;20033;-65
2022/08/30 06:49:47;;;;;;;8.05;7.25;;;;;;;15.74;80.72;102050.78;5038080;28;20491;-65
2022/08/30 06:52:12;;;;;;;10.15;7.53;;;;;;;15.74;79.86;102035.09;5028369;28;20036;-64
2022/08/30 06:54:37;;;;;;;7.95;6.47;;;;;;;15.77;79.42;102040.09;5035148;28;20036;-65
2022/08/30 06:57:03;;;;;;;7.80;6.38;;;;;;;15.93;78.96;102050.88;5029023;28;20513;-64
2022/08/30 06:59:30;;;;;;;8.52;6.40;;;;;;;16.00;79.02;102045.13;5030430;28;20517;-64
2022/08/30 07:01:56;;;;;;;7.50;6.40;;;;;;;16.06;79.18;102052.50;5040274;28;20025;-66
2022/08/30 07:04:21;;;;;;;8.30;5.80;;;;;;;16.12;78.11;102054.56;5040864;28;20036;-67
2022/08/30 07:06:47;;;;;;;7.10;5.45;;;;;;;16.16;76.95;102062.00;5046019;28;20031;-64
2022/08/30 07:09:12;;;;;;;9.55;5.75;;;;;;;16.18;76.81;102043.59;5034714;28;20541;-64
2022/08/30 07:11:39;;;;;;;8.43;5.43;;;;;;;16.31;77.08;102048.59;5052101;28;20051;-66
2022/08/30 07:14:05;;;;;;;7.85;5.60;;;;;;;16.35;76.05;102056.03;5029164;28;20370;-64
2022/08/30 07:16:31;;;;;;;7.00;4.93;;;;;;;16.38;74.79;102055.75;5044702;28;20029;-66
2022/08/30 07:18:57;;;;;;;6.95;5.10;;;;;;;16.46;74.88;102055.94;5034635;28;20022;-66
2022/08/30 07:21:35;;;;;;;6.57;4.63;;;;;;;16.51;74.41;102059.94;5028028;28;20021;-65
2022/08/30 07:24:01;;;;;;;7.05;5.00;;;;;;;16.56;74.10;102069.03;5027427;28;20037;-65
2022/08/30 07:26:31;;;;;;;7.38;4.80;;;;;;;16.64;74.07;102071.00;5032127;28;20100;-65
2022/08/30 07:28:57;;;;;;;6.95;4.57;;;;;;;16.71;73.50;102066.91;5038460;28;20041;-64
2022/08/30 07:31:23;;;;;;;6.18;4.35;;;;;;;16.75;73.11;102067.50;5034537;28;20466;-66
2022/08/30 07:33:49;;;;;;;5.97;4.22;;;;;;;16.81;73.42;102062.53;5029084;28;20033;-65
2022/08/30 07:36:16;;;;;;;5.30;3.60;;;;;;;16.93;71.37;102066.69;5030032;28;20033;-65
2022/08/30 07:38:43;;;;;;;6.88;4.00;;;;;;;17.04;72.11;102062.28;5025777;28;20021;-67
2022/08/30 07:41:08;;;;;;;8.02;4.00;;;;;;;17.16;71.48;102066.41;5026475;28;20051;-65
2022/08/30 07:43:36;;;;;;;7.22;3.85;;;;;;;17.21;70.53;102074.72;5029270;28;20025;-65
2022/08/30 07:46:04;;;;;;;7.53;3.50;;;;;;;17.29;70.09;102066.97;5028278;28;20021;-68
2022/08/30 07:48:30;;;;;;;6.03;3.35;;;;;;;17.29;69.34;102071.38;5027833;28;20033;-65
2022/08/30 07:50:55;;;;;;;6.97;3.60;;;;;;;17.37;69.27;102074.94;5039324;28;20354;-65
2022/08/30 07:53:21;;;;;;;6.18;3.08;;;;;;;17.42;68.20;102083.22;5028902;28;20484;-65
2022/08/30 07:55:46;;;;;;;7.22;3.40;;;;;;;17.45;68.01;102082.16;5026533;28;20436;-65
2022/08/30 07:58:11;;;;;;;5.70;2.88;;;;;;;17.51;67.54;102082.41;5027672;28;20044;-68
2022/08/30 08:00:37;;;;;;;7.28;3.00;;;;;;;17.60;67.57;102072.84;5036706;28;20036;-65
2022/08/30 08:03:07;;;;;;;4.40;2.60;;;;;;;17.61;66.09;102071.09;5028559;28;20376;-65
2022/08/30 08:05:38;;;;;;;6.15;2.53;;;;;;;17.74;65.66;102087.38;5026395;28;20021;-65
2022/08/30 08:08:04;;;;;;;5.97;2.40;;;;;;;17.74;65.03;102082.97;5031427;28;20039;-65
2022/08/30 08:10:30;;;;;;;5.13;2.30;;;;;;;17.78;64.28;102099.25;5033587;28;20029;-64
2022/08/30 08:12:55;;;;;;;6.35;2.30;;;;;;;17.89;64.80;102090.38;5029335;28;20560;-65
2022/08/30 08:15:21;;;;;;;5.85;2.38;;;;;;;17.90;63.89;102087.63;5038569;28;20069;-64
2022/08/30 08:17:47;;;;;;;5.07;2.40;;;;;;;18.00;64.32;102088.41;5035177;28;20345;-64
2022/08/30 08:20:12;;;;;;;6.57;2.20;;;;;;;17.99;63.62;102092.00;5035698;28;20418;-65
2022/08/30 08:22:37;;;;;;;5.28;2.50;;;;;;;18.04;64.11;102095.03;5027241;28;20059;-64
2022/08/30 08:25:03;;;;;;;5.25;2.30;;;;;;;18.20;64.83;102085.72;5030833;28;20386;-64
2022/08/30 08:27:29;;;;;;;3.97;2.45;;;;;;;18.26;64.04;102093.03;5029759;28;20563;-65
2022/08/30 08:29:55;;;;;;;6.85;2.50;;;;;;;18.24;62.96;102102.88;5029846;28;20112;-65
2022/08/30 08:32:20;;;;;;;6.63;2.53;;;;;;;18.27;63.17;102099.94;5031585;28;20021;-66
2022/08/30 08:34:45;;;;;;;5.57;2.45;;;;;;;18.30;63.25;102100.47;5038421;28;20025;-66
2022/08/30 08:37:11;;;;;;;4.97;2.33;;;;;;;18.45;63.32;102103.44;5041190;28;20104;-65
2022/08/30 08:39:36;;;;;;;6.72;2.45;;;;;;;18.38;62.41;102097.13;5039244;28;20032;-67
2022/08/30 08:42:14;;;;;;;5.28;2.40;;;;;;;18.46;63.02;102107.72;5037921;28;20056;-65
2022/08/30 08:44:40;;;;;;;;;;;;;;;18.54;63.66;102102.59;5035606;28;20035;-68
2022/08/30 08:47:13;;;;;;;5.30;2.63;;;;;;;18.56;62.20;102095.38;5032081;28;19921;-68
2022/08/30 08:49:41;;;;;;;5.03;2.50;;;;;;;18.57;61.77;102094.38;5039330;28;20029;-65
2022/08/30 08:55:00;;;;;;;7.00;3.17;;;;;;;18.90;62.79;102093.97;5057812;28;20039;-66
2022/08/30 08:57:32;;;;;;;7.22;3.13;;;;;;;18.99;61.38;102093.09;5045081;28;20468;-65
2022/08/30 08:59:58;;;;;;;5.57;2.60;;;;;;;19.09;61.82;102092.00;5046541;28;20021;-69
2022/08/30 09:02:33;;;;;;;4.90;2.60;;;;;;;19.15;61.71;102100.28;5055944;28;20028;-66
2022/08/30 09:05:00;;;;;;;5.05;2.58;;;;;;;19.17;61.26;102095.72;5043394;28;20055;-66
2022/08/30 09:07:31;;;;;;;6.13;2.60;;;;;;;19.28;60.92;102108.63;5043982;28;20044;-67
2022/08/30 09:09:59;;;;;;;5.55;2.08;;;;;;;19.30;59.27;102104.03;5035628;28;20281;-65
2022/08/30 09:12:26;;;;;;;5.50;2.30;;;;;;;19.28;59.28;102090.22;5030508;28;20046;-65
2022/08/30 09:15:01;;;;;;;5.40;2.20;;;;;;;19.34;60.15;102094.88;5029087;28;20396;-67
2022/08/30 09:17:27;;;;;;;6.65;2.05;;;;;;;19.41;59.11;102090.66;5037442;28;20025;-65
2022/08/30 09:19:52;;;;;;;5.07;2.20;;;;;;;19.42;59.01;102102.00;5032930;28;20031;-66
2022/08/30 09:22:20;;;;;;;4.88;2.30;;;;;;;19.46;58.61;102098.94;5028085;28;20072;-66
2022/08/30 09:25:07;;;;;;;4.50;2.20;;;;;;;19.56;58.56;102098.84;5031282;28;20025;-67
2022/08/30 09:27:36;;;;;;;7.70;2.38;;;;;;;19.71;58.17;102099.13;5030342;28;20313;-66
2022/08/30 09:30:04;;;;;;;4.68;1.80;;;;;;;19.75;57.38;102103.94;5036040;28;20083;-65
2022/08/30 09:32:34;;;;;;;7.00;2.42;;;;;;;19.82;56.91;102088.34;5027946;28;20036;-67
2022/08/30 09:35:00;;;;;;;7.32;2.30;;;;;;;19.83;55.97;102101.34;5037459;28;20083;-65
2022/08/30 09:37:39;;;;;;;6.15;2.20;;;;;;;19.93;56.83;102101.25;5047609;28;20472;-66
2022/08/30 09:40:13;;;;;;;6.88;2.60;;;;;;;20.08;56.76;102109.41;5039027;28;20033;-66
2022/08/30 09:42:39;;;;;;;5.72;2.20;;;;;;;20.26;56.86;102107.53;5037432;28;20024;-65
2022/08/30 09:45:17;;;;;;;5.47;2.30;;;;;;;20.32;55.90;102104.25;5047748;28;20036;-65
2022/08/30 09:47:43;;;;;;;6.50;2.40;;;;;;;20.33;54.40;102107.72;5039886;28;20288;-65
2022/08/30 09:50:16;;;;;;;6.60;2.42;;;;;;;20.38;54.51;102110.72;5034663;28;20386;-68
2022/08/30 09:53:08;;;;;;;7.85;2.45;;;;;;;20.50;55.67;102103.38;5033254;28;20059;-68
2022/08/30 09:55:51;;;;;;;5.88;2.03;;;;;;;20.62;54.63;102100.28;5033594;28;20049;-65
2022/08/30 09:58:40;;;;;;;7.57;2.20;;;;;;;20.57;53.42;102110.47;5027558;28;20021;-65
2022/08/30 10:01:19;;;;;;;4.22;2.00;;;;;;;20.74;54.16;102100.00;5031070;28;20444;-68
2022/08/30 10:03:59;;;;;;;6.20;2.05;;;;;;;20.75;52.81;102101.63;5031697;28;20033;-65
2022/08/30 10:06:29;;;;;;;4.93;2.15;;;;;;;20.84;52.26;102100.69;5029984;28;20024;-65
2022/08/30 10:09:09;;;;;;;5.40;2.60;;;;;;;20.89;52.50;102098.38;5033571;28;20433;-66
2022/08/30 10:11:46;;;;;;;3.35;1.85;;;;;;;20.93;51.88;102091.78;5039238;28;20758;-67
2022/08/30 10:14:36;;;;;;;4.75;2.10;;;;;;;21.12;52.52;102088.84;5035510;28;20104;-66
2022/08/30 10:17:22;;;;;;;3.85;1.95;;;;;;;21.08;51.47;102091.97;5043459;28;20075;-66
2022/08/30 10:20:10;;;;;;;3.85;1.92;;;;;;;21.14;50.49;102092.16;5041182;28;20082;-65
2022/08/30 10:22:42;;;;;;;3.85;2.10;;;;;;;21.33;50.76;102092.84;5039563;28;20488;-65
2022/08/30 10:25:54;;;;;;;3.70;2.15;;;;;;;21.33;52.02;102090.19;5027847;28;20021;-69
2022/08/30 10:28:36;;;;;;;4.72;2.20;;;;;;;21.28;51.42;102092.50;4965973;28;20038;-65
2022/08/30 10:31:10;;;;;;;4.38;2.20;;;;;;;21.41;51.03;102095.50;4965015;28;20039;-65
2022/08/30 10:33:43;;;;;;;4.25;2.20;;;;;;;21.54;50.18;102098.44;4965919;28;20073;-65
2022/08/30 10:36:10;;;;;;;4.65;2.08;;;;;;;21.57;49.48;102095.50;4966164;28;20049;-65
2022/08/30 10:38:40;;;;;;;5.00;2.30;;;;;;;21.66;48.68;102091.84;4966300;28;20031;-65
2022/08/30 10:41:34;;;;;;;6.88;2.15;;;;;;;21.71;50.14;102093.97;4947709;28;20114;-67
2022/08/30 10:44:05;;;;;;;4.57;1.73;;;;;;;21.65;48.83;102094.66;4965989;28;20034;-66
2022/08/30 10:46:55;;;;;;;5.75;2.50;;;;;;;21.73;49.72;102095.47;4964951;28;20031;-65
2022/08/30 10:49:24;;;;;;;3.75;1.88;;;;;;;21.69;48.35;102096.78;4957561;28;20138;-65
2022/08/30 10:51:59;;;;;;;4.47;2.28;;;;;;;21.74;48.03;102093.66;4963958;28;20070;-66
2022/08/30 10:54:31;;;;;;;3.33;1.73;;;;;;;21.81;48.37;102101.72;4965891;28;20054;-65
2022/08/30 10:56:58;;;;;;;6.03;2.10;;;;;;;21.94;49.90;102094.91;4975300;28;20029;-67
2022/08/30 10:59:24;;;;;;;5.88;2.00;;;;;;;21.93;47.90;102097.75;4965575;28;20035;-65
2022/08/30 11:02:05;;;;;;;3.97;1.95;;;;;;;22.11;49.00;102100.19;4982856;28;20036;-65
2022/08/30 11:05:06;;;;;;;5.10;2.20;;;;;;;22.05;48.16;102085.81;5042486;28;20041;-65
2022/08/30 11:07:51;;;;;;;5.40;2.13;;;;;;;22.01;47.07;102095.88;5040053;28;20025;-66
2022/08/30 11:10:37;;;;;;;3.50;1.65;;;;;;;21.99;46.30;102089.13;5036419;28;20025;-66
2022/08/30 11:13:09;;;;;;;4.15;1.90;;;;;;;21.93;46.08;102081.88;5041858;28;20056;-65
2022/08/30 11:15:50;;;;;;;4.50;2.00;;;;;;;21.94;46.19;102078.25;5048229;28;20025;-68
2022/08/30 11:18:17;;;;;;;5.00;2.22;;;;;;;22.04;46.31;102070.97;5037014;28;20031;-65
2022/08/30 11:20:46;;;;;;;5.07;2.05;;;;;;;22.22;46.38;102071.56;5042666;28;20017;-65
2022/08/30 11:23:17;;;;;;;6.32;2.20;;;;;;;22.31;46.54;102075.03;5039370;28;20026;-67
2022/08/30 11:25:50;;;;;;;3.13;1.70;;;;;;;22.44;46.45;102077.09;5039726;28;20028;-66
2022/08/30 11:28:34;;;;;;;4.03;1.90;;;;;;;22.57;47.37;102074.72;5046153;28;20025;-66
2022/08/30 11:31:37;;;;;;;5.45;1.80;;;;;;;22.72;46.93;102072.97;5045556;28;20567;-65
2022/08/30 11:34:03;;;;;;;4.95;2.00;;;;;;;22.70;44.57;102082.06;5016843;28;20079;-66